Time;durP1;ratioP1;P1;durP2;ratioP2;P2;SDS_P1;SDS_P2;PMS_P1;PMS_P2;Temp;Humidity;BMP_temperature;BMP_pressure;BME280_temperature;BME280_humidity;BME280_pressure;Samples;Min_cycle;Max_cycle;Signal;HPM_P1;HPM_P2
2021/06/26 00:01:46;;;;;;;30.88;7.60;;;615.20;2432.00;;;;;;4973606;28;20027;-79
2021/06/26 00:04:13;;;;;;;20.02;6.90;;;615.20;2432.00;;;;;;4973668;28;20027;-79
2021/06/26 00:06:39;;;;;;;21.77;6.72;;;615.10;2432.00;;;;;;4974711;28;20031;-80
2021/06/26 00:09:05;;;;;;;23.52;6.10;;;615.10;2432.00;;;;;;4974085;28;20030;-80
2021/06/26 00:11:32;;;;;;;21.95;6.43;;;615.00;2432.00;;;;;;4973621;28;20027;-78
2021/06/26 00:13:58;;;;;;;23.55;7.85;;;614.90;2432.00;;;;;;4973720;28;20045;-80
2021/06/26 00:16:24;;;;;;;22.35;6.35;;;614.80;2432.00;;;;;;4973515;28;20084;-81
2021/06/26 00:18:49;;;;;;;20.95;6.25;;;614.80;2432.00;;;;;;4973678;28;20398;-78
2021/06/26 00:21:15;;;;;;;33.50;8.68;;;615.00;2432.00;;;;;;4974582;28;20023;-78
2021/06/26 00:23:41;;;;;;;20.55;7.30;;;614.80;2432.00;;;;;;4973542;28;20026;-78
2021/06/26 00:26:07;;;;;;;24.77;6.75;;;614.90;2432.00;;;;;;4973516;28;20371;-80
2021/06/26 00:28:33;;;;;;;19.88;5.85;;;614.90;2432.00;;;;;;4973352;28;20475;-79
2021/06/26 00:31:00;;;;;;;22.58;7.22;;;614.60;2432.00;;;;;;4973504;28;20029;-79
2021/06/26 00:33:26;;;;;;;22.30;6.88;;;614.60;2432.00;;;;;;4973444;28;20042;-80
2021/06/26 00:35:51;;;;;;;20.45;7.75;;;614.60;2432.00;;;;;;4974142;28;20078;-80
2021/06/26 00:38:17;;;;;;;18.13;6.03;;;614.60;2432.00;;;;;;4973411;28;20026;-79
2021/06/26 00:40:43;;;;;;;22.27;6.80;;;589.70;2432.00;;;;;;4973473;28;20447;-78
2021/06/26 00:43:09;;;;;;;19.60;7.00;;;589.70;2432.00;;;;;;4972752;28;20050;-78
2021/06/26 00:45:35;;;;;;;22.83;6.43;;;614.50;2432.00;;;;;;4973425;28;20134;-79
2021/06/26 00:48:01;;;;;;;20.55;6.30;;;614.60;2432.00;;;;;;4973339;28;20074;-80
2021/06/26 00:50:29;;;;;;;21.13;7.00;;;614.70;2432.00;;;;;;4973084;28;20027;-80
2021/06/26 00:52:55;;;;;;;20.80;6.70;;;614.70;2432.00;;;;;;4974552;28;20030;-78
2021/06/26 00:55:22;;;;;;;19.92;6.32;;;615.00;2432.00;;;;;;4975004;28;20387;-79
2021/06/26 00:57:50;;;;;;;20.85;6.45;;;614.60;2432.00;;;;;;4976660;28;20521;-80
2021/06/26 01:00:17;;;;;;;19.25;5.32;;;614.80;2432.00;;;;;;4978239;28;20114;-79
2021/06/26 01:02:42;;;;;;;20.75;6.30;;;614.80;2432.00;;;;;;4976185;28;20019;-80
2021/06/26 01:05:10;;;;;;;20.20;6.72;;;614.80;2432.00;;;;;;4976605;28;20486;-80
2021/06/26 01:07:36;;;;;;;21.92;7.47;;;614.80;2432.00;;;;;;4977759;28;20029;-78
2021/06/26 01:10:03;;;;;;;25.05;6.22;;;614.80;2432.00;;;;;;4976294;28;20022;-80
2021/06/26 01:12:29;;;;;;;20.27;7.10;;;614.60;2432.00;;;;;;4976474;28;20027;-80
2021/06/26 01:14:55;;;;;;;20.63;5.22;;;589.70;2432.00;;;;;;4976392;28;20023;-80
2021/06/26 01:17:21;;;;;;;23.45;6.50;;;614.40;2432.00;;;;;;4976088;28;20451;-77
2021/06/26 01:19:47;;;;;;;17.83;6.13;;;614.50;2432.00;;;;;;4976507;28;20029;-77
2021/06/26 01:22:19;;;;;;;25.80;6.65;;;589.70;2432.00;;;;;;4977565;28;20518;-81
2021/06/26 01:24:45;;;;;;;22.90;5.40;;;589.70;2432.00;;;;;;4976116;28;20022;-78
2021/06/26 01:27:11;;;;;;;21.70;6.20;;;589.70;2432.00;;;;;;4976048;28;20031;-80
2021/06/26 01:29:36;;;;;;;19.48;5.82;;;589.70;2432.00;;;;;;4977457;28;20023;-80
2021/06/26 01:32:06;;;;;;;20.42;6.40;;;589.60;2432.00;;;;;;4977434;28;20026;-80
2021/06/26 01:34:32;;;;;;;18.48;5.90;;;589.60;2432.00;;;;;;4976220;28;20371;-79
2021/06/26 01:36:59;;;;;;;19.23;5.55;;;589.50;2432.00;;;;;;4975854;28;20045;-80
2021/06/26 01:39:24;;;;;;;23.20;6.53;;;589.70;2432.00;;;;;;4976936;28;20038;-80
2021/06/26 01:41:50;;;;;;;18.55;5.50;;;589.60;2432.00;;;;;;4976014;28;20027;-81
2021/06/26 01:44:16;;;;;;;20.05;5.72;;;589.70;2432.00;;;;;;4977204;28;20033;-80
2021/06/26 01:46:42;;;;;;;21.35;5.63;;;614.40;2432.00;;;;;;4976945;28;20410;-79
2021/06/26 01:49:12;;;;;;;17.98;5.50;;;589.50;2432.00;;;;;;4975831;28;20082;-79
2021/06/26 01:51:39;;;;;;;14.95;5.10;;;589.30;2432.00;;;;;;4975545;28;20025;-79
2021/06/26 01:54:08;;;;;;;19.92;5.45;;;589.10;2432.00;;;;;;4976486;28;20089;-79
2021/06/26 01:56:36;;;;;;;19.05;5.63;;;589.50;2432.00;;;;;;4976965;28;20207;-79
2021/06/26 01:59:02;;;;;;;20.23;6.10;;;589.50;2432.00;;;;;;4975415;28;20050;-79
2021/06/26 02:01:27;;;;;;;20.50;6.05;;;589.50;2432.00;;;;;;4975672;28;20057;-80
2021/06/26 02:03:53;;;;;;;23.25;5.78;;;589.50;2432.00;;;;;;4975819;28;20111;-81
2021/06/26 02:06:19;;;;;;;25.08;6.75;;;589.20;2432.00;;;;;;4974620;28;20455;-79
2021/06/26 02:08:45;;;;;;;26.00;5.70;;;589.10;2432.00;;;;;;4976380;28;20467;-80
2021/06/26 02:11:11;;;;;;;18.15;6.18;;;589.10;2432.00;;;;;;4975571;28;20429;-82
2021/06/26 02:13:37;;;;;;;15.18;5.53;;;589.10;2432.00;;;;;;4975028;28;20033;-78
2021/06/26 02:16:03;;;;;;;18.60;5.30;;;589.20;2432.00;;;;;;4975280;28;20066;-77
2021/06/26 02:18:28;;;;;;;18.88;6.13;;;589.20;2432.00;;;;;;4976081;28;20085;-77
2021/06/26 02:20:54;;;;;;;19.02;5.85;;;589.20;2432.00;;;;;;4974978;28;20061;-78
2021/06/26 02:23:20;;;;;;;19.45;7.07;;;589.20;2432.00;;;;;;4975115;28;20057;-79
2021/06/26 02:25:46;;;;;;;23.08;6.85;;;589.10;2432.00;;;;;;4975256;28;20070;-80
2021/06/26 02:28:12;;;;;;;22.40;5.53;;;589.20;2432.00;;;;;;4974880;28;20027;-78
2021/06/26 02:30:38;;;;;;;18.42;5.32;;;589.20;2432.00;;;;;;4975080;28;20023;-78
2021/06/26 02:33:04;;;;;;;20.95;5.55;;;589.30;2432.00;;;;;;4976092;28;20363;-79
2021/06/26 02:35:30;;;;;;;18.70;5.50;;;589.30;2432.00;;;;;;4974663;28;20065;-79
2021/06/26 02:37:56;;;;;;;19.75;5.88;;;589.30;2432.00;;;;;;4974785;28;20455;-80
2021/06/26 02:40:22;;;;;;;21.40;5.40;;;589.20;2432.00;;;;;;4974578;28;20182;-79
2021/06/26 02:42:47;;;;;;;21.40;5.65;;;589.20;2432.00;;;;;;4974679;28;20054;-80
2021/06/26 02:45:14;;;;;;;20.60;6.22;;;588.90;2432.00;;;;;;4975904;28;20015;-79
2021/06/26 02:47:40;;;;;;;16.73;5.30;;;588.80;2432.00;;;;;;4974409;28;20058;-80
2021/06/26 02:50:07;;;;;;;18.45;5.72;;;588.90;2432.00;;;;;;4974917;28;20058;-80
2021/06/26 02:52:33;;;;;;;19.15;5.97;;;589.00;2432.00;;;;;;4974735;28;20027;-79
2021/06/26 02:54:59;;;;;;;19.90;6.25;;;564.10;2432.00;;;;;;4974137;28;20390;-80
2021/06/26 02:57:25;;;;;;;19.88;6.05;;;563.80;2432.00;;;;;;4974681;28;20023;-80
2021/06/26 02:59:51;;;;;;;20.25;6.78;;;564.10;2432.00;;;;;;4974379;28;20046;-79
2021/06/26 03:02:17;;;;;;;29.02;9.10;;;563.90;2432.00;;;;;;4975086;28;20027;-78
2021/06/26 03:04:43;;;;;;;23.40;6.20;;;563.60;2432.00;;;;;;4974651;28;20056;-78
2021/06/26 03:07:09;;;;;;;19.63;5.90;;;563.60;2432.00;;;;;;4974266;28;20105;-79
2021/06/26 03:09:36;;;;;;;24.00;6.40;;;563.70;2432.00;;;;;;4975230;28;20031;-78
2021/06/26 03:12:02;;;;;;;23.85;7.93;;;563.90;2432.00;;;;;;4975448;28;20023;-78
2021/06/26 03:14:27;;;;;;;23.65;5.60;;;563.80;2432.00;;;;;;4974382;28;20069;-78
2021/06/26 03:16:53;;;;;;;20.38;5.50;;;563.90;2432.00;;;;;;4973988;28;20069;-81
2021/06/26 03:19:19;;;;;;;20.83;5.85;;;564.00;2432.00;;;;;;4974194;28;20034;-78
2021/06/26 03:21:45;;;;;;;22.98;6.03;;;563.90;2432.00;;;;;;4974294;28;20030;-81
2021/06/26 03:24:11;;;;;;;20.02;6.63;;;563.80;2432.00;;;;;;4973991;28;20023;-80
2021/06/26 03:26:37;;;;;;;14.98;5.78;;;563.60;2432.00;;;;;;4975329;28;20027;-81
2021/06/26 03:29:03;;;;;;;20.63;8.48;;;564.00;2432.00;;;;;;4974547;28;20057;-82
2021/06/26 03:31:30;;;;;;;24.83;6.40;;;564.10;2432.00;;;;;;4973907;28;20410;-80
2021/06/26 03:33:55;;;;;;;23.10;5.40;;;564.10;2432.00;;;;;;4974024;28;20026;-79
2021/06/26 03:36:22;;;;;;;29.90;5.82;;;564.10;2432.00;;;;;;4973717;28;20057;-80
2021/06/26 03:38:48;;;;;;;20.25;6.35;;;564.10;2432.00;;;;;;4974047;28;20031;-79
2021/06/26 03:41:13;;;;;;;21.13;7.25;;;588.80;2432.00;;;;;;4975312;28;20034;-78
2021/06/26 03:43:40;;;;;;;20.73;7.30;;;588.90;2432.00;;;;;;4973762;28;20023;-78
2021/06/26 03:46:05;;;;;;;21.42;7.28;;;589.00;2432.00;;;;;;4974102;28;20037;-80
2021/06/26 03:48:31;;;;;;;18.52;7.32;;;589.00;2432.00;;;;;;4973925;28;20030;-81
2021/06/26 03:50:59;;;;;;;24.02;7.18;;;588.80;2432.00;;;;;;4973733;28;20085;-78
2021/06/26 03:53:27;;;;;;;19.83;6.68;;;588.80;2432.00;;;;;;4973989;28;20019;-79
2021/06/26 03:55:52;;;;;;;22.85;5.82;;;564.00;2432.00;;;;;;4973423;28;20043;-81
2021/06/26 03:58:20;;;;;;;25.13;6.65;;;564.10;2432.00;;;;;;4975048;28;20117;-78
2021/06/26 04:00:46;;;;;;;17.00;6.65;;;564.10;2432.00;;;;;;4974041;28;20057;-80
2021/06/26 04:03:12;;;;;;;21.23;5.95;;;563.70;2432.00;;;;;;4973885;28;20065;-79
2021/06/26 04:05:38;;;;;;;21.90;5.97;;;563.90;2432.00;;;;;;4973165;28;20050;-80
2021/06/26 04:08:05;;;;;;;23.10;6.90;;;564.00;2432.00;;;;;;4973732;28;20025;-79
2021/06/26 04:10:32;;;;;;;22.95;6.40;;;564.10;2432.00;;;;;;4974891;28;20081;-79
2021/06/26 04:12:57;;;;;;;20.02;6.68;;;564.10;2432.00;;;;;;4973648;28;20109;-80
2021/06/26 04:15:23;;;;;;;18.05;6.47;;;563.80;2432.00;;;;;;4975146;28;20522;-79
2021/06/26 04:17:49;;;;;;;21.05;7.95;;;564.00;2432.00;;;;;;4973823;28;20033;-81
2021/06/26 04:20:15;;;;;;;25.65;6.85;;;564.10;2432.00;;;;;;4973385;28;20097;-78
2021/06/26 04:22:44;;;;;;;21.65;6.88;;;588.80;2432.00;;;;;;4973606;28;20348;-79
2021/06/26 04:25:14;;;;;;;17.17;5.82;;;564.00;2432.00;;;;;;4974239;28;20039;-81
2021/06/26 04:27:40;;;;;;;21.55;6.30;;;564.10;2432.00;;;;;;4973941;28;20026;-79
2021/06/26 04:30:06;;;;;;;24.30;6.05;;;564.10;2432.00;;;;;;4975970;28;20073;-80
2021/06/26 04:32:35;;;;;;;21.48;5.90;;;588.80;2432.00;;;;;;4977357;28;20023;-80
2021/06/26 04:35:00;;;;;;;27.42;8.00;;;564.10;2432.00;;;;;;4977410;28;20027;-80
2021/06/26 04:37:26;;;;;;;21.20;6.25;;;588.80;2432.00;;;;;;4978724;28;20376;-79
2021/06/26 04:39:52;;;;;;;25.67;6.75;;;564.10;2432.00;;;;;;4978285;28;20018;-79
2021/06/26 04:42:18;;;;;;;22.52;6.40;;;588.80;2432.00;;;;;;4977503;28;20023;-81
2021/06/26 04:44:44;;;;;;;24.52;7.55;;;588.90;2432.00;;;;;;4977274;28;20026;-80
2021/06/26 04:47:10;;;;;;;19.70;6.32;;;588.80;2432.00;;;;;;4976849;28;20030;-82
2021/06/26 04:49:36;;;;;;;29.75;8.07;;;564.10;2432.00;;;;;;4977246;28;20451;-79
2021/06/26 04:52:03;;;;;;;20.90;7.18;;;588.80;2432.00;;;;;;4977234;28;20022;-81
2021/06/26 04:54:29;;;;;;;19.92;6.55;;;564.10;2432.00;;;;;;4977067;28;20051;-80
2021/06/26 04:56:55;;;;;;;30.70;7.25;;;564.10;2432.00;;;;;;4976851;28;20038;-77
2021/06/26 04:59:20;;;;;;;25.10;8.73;;;588.90;2432.00;;;;;;4976827;28;20527;-78
2021/06/26 05:01:46;;;;;;;20.52;6.10;;;589.00;2432.00;;;;;;4976833;28;20022;-78
2021/06/26 05:04:12;;;;;;;24.27;6.03;;;589.00;2432.00;;;;;;4976771;28;20094;-77
2021/06/26 05:06:38;;;;;;;25.80;7.05;;;589.00;2432.00;;;;;;4976702;28;20027;-79
2021/06/26 05:09:05;;;;;;;17.98;6.50;;;589.10;2432.00;;;;;;4976883;28;20026;-81
2021/06/26 05:11:31;;;;;;;23.80;7.88;;;589.20;2432.00;;;;;;4976336;28;20034;-81
2021/06/26 05:13:57;;;;;;;25.80;6.60;;;589.30;2432.00;;;;;;4976667;28;20030;-78
2021/06/26 05:16:23;;;;;;;17.60;6.18;;;589.30;2432.00;;;;;;4977598;28;20031;-78
2021/06/26 05:18:49;;;;;;;23.13;5.93;;;589.50;2432.00;;;;;;4976324;28;20023;-79
2021/06/26 05:21:14;;;;;;;26.08;7.55;;;589.50;2432.00;;;;;;4977537;28;20026;-79
2021/06/26 05:23:40;;;;;;;20.83;6.10;;;589.60;2432.00;;;;;;4976561;28;20480;-81
2021/06/26 05:26:09;;;;;;;19.98;6.72;;;589.70;2432.00;;;;;;4977376;28;20027;-79
2021/06/26 05:28:36;;;;;;;25.67;7.18;;;589.70;2432.00;;;;;;4976642;28;20054;-80
2021/06/26 05:31:02;;;;;;;27.02;9.55;;;589.70;2432.00;;;;;;4976871;28;20113;-81
2021/06/26 05:33:28;;;;;;;21.15;8.98;;;589.70;2432.00;;;;;;4976658;28;20058;-78
2021/06/26 05:35:53;;;;;;;24.13;10.02;;;614.50;2432.00;;;;;;4976198;28;20093;-79
2021/06/26 05:38:19;;;;;;;30.60;9.45;;;614.40;2432.00;;;;;;4976021;28;20121;-80
2021/06/26 05:40:45;;;;;;;26.00;8.02;;;614.50;2432.00;;;;;;4974687;28;20018;-79
2021/06/26 05:43:11;;;;;;;22.70;6.20;;;614.50;2432.00;;;;;;4976045;28;20105;-79
2021/06/26 05:45:37;;;;;;;28.08;8.10;;;614.60;2432.00;;;;;;4977019;28;20039;-80
2021/06/26 05:48:03;;;;;;;20.17;6.40;;;614.70;2432.00;;;;;;4977133;28;20029;-81
2021/06/26 05:50:29;;;;;;;20.60;6.28;;;614.80;2432.00;;;;;;4975738;28;20493;-79
2021/06/26 05:52:56;;;;;;;37.38;7.65;;;614.90;2432.00;;;;;;4975392;28;20019;-78
2021/06/26 05:55:23;;;;;;;31.25;7.43;;;614.90;2432.00;;;;;;4975476;28;20047;-80
2021/06/26 05:57:49;;;;;;;19.83;5.97;;;614.90;2432.00;;;;;;5008268;28;20378;-79
2021/06/26 06:00:17;;;;;;;27.33;5.88;;;614.90;2432.00;;;;;;4976543;28;20087;-79
2021/06/26 06:02:44;;;;;;;23.98;6.85;;;615.20;2432.00;;;;;;4976802;28;20025;-81
2021/06/26 06:05:12;;;;;;;25.10;5.72;;;640.00;2432.00;;;;;;4975499;28;20410;-79
2021/06/26 06:07:38;;;;;;;18.73;6.00;;;640.10;2432.00;;;;;;4975124;28;20023;-80
2021/06/26 06:10:06;;;;;;;24.67;6.40;;;640.20;2432.00;;;;;;4975414;28;20019;-81
2021/06/26 06:12:36;;;;;;;20.95;5.80;;;640.40;2432.00;;;;;;4976453;28;20034;-80
2021/06/26 06:15:05;;;;;;;20.13;5.85;;;640.20;2432.00;;;;;;4975095;28;20022;-79
2021/06/26 06:17:31;;;;;;;20.48;6.45;;;640.40;2432.00;;;;;;4975302;28;20031;-79
2021/06/26 06:19:57;;;;;;;24.65;7.03;;;640.60;2432.00;;;;;;4975272;28;20027;-79
2021/06/26 06:22:26;;;;;;;19.55;5.78;;;640.80;2432.00;;;;;;4974817;28;20058;-79
2021/06/26 06:24:52;;;;;;;20.85;5.68;;;640.90;2432.00;;;;;;4975074;28;20344;-80
2021/06/26 06:27:18;;;;;;;18.75;5.32;;;640.90;2432.00;;;;;;4976076;28;20035;-81
2021/06/26 06:29:44;;;;;;;15.68;5.43;;;640.70;2432.00;;;;;;4974928;28;20033;-80
2021/06/26 06:32:10;;;;;;;20.50;7.22;;;640.90;2432.00;;;;;;4976328;28;20033;-80
2021/06/26 06:34:36;;;;;;;23.08;5.75;;;665.60;2432.00;;;;;;4975063;28;20117;-79
2021/06/26 06:37:02;;;;;;;22.90;6.50;;;665.60;2432.00;;;;;;4974808;28;20455;-81
2021/06/26 06:39:28;;;;;;;21.45;5.50;;;665.90;2432.00;;;;;;4976074;28;20467;-80
2021/06/26 06:41:54;;;;;;;19.83;5.65;;;666.00;2432.00;;;;;;4974521;28;20026;-80
2021/06/26 06:44:20;;;;;;;19.48;5.97;;;666.20;2432.00;;;;;;4975094;28;20362;-79
2021/06/26 06:46:45;;;;;;;25.73;6.78;;;666.50;2432.00;;;;;;4974819;28;20030;-79
2021/06/26 06:49:11;;;;;;;21.52;6.60;;;691.20;2432.00;;;;;;4974396;28;20029;-80
2021/06/26 06:51:37;;;;;;;19.77;5.68;;;691.30;2432.00;;;;;;4974383;28;20027;-81
2021/06/26 06:54:04;;;;;;;20.58;6.40;;;691.60;2432.00;;;;;;4974175;28;20034;-79
2021/06/26 06:56:30;;;;;;;24.05;6.85;;;691.70;2432.00;;;;;;4974284;28;20034;-79
2021/06/26 06:58:56;;;;;;;17.65;7.10;;;691.80;2432.00;;;;;;4975735;28;20655;-81
2021/06/26 07:01:23;;;;;;;23.65;7.10;;;692.10;2432.00;;;;;;4974385;28;20450;-79
2021/06/26 07:03:49;;;;;;;19.92;6.38;;;692.10;2432.00;;;;;;4974277;28;20576;-79
2021/06/26 07:06:15;;;;;;;18.80;5.65;;;691.90;2432.00;;;;;;4974507;28;20027;-80
2021/06/26 07:08:40;;;;;;;21.33;7.10;;;691.80;2432.00;;;;;;4975688;28;20304;-79
2021/06/26 07:11:06;;;;;;;20.52;6.53;;;691.70;2432.00;;;;;;4974201;28;20023;-82
2021/06/26 07:13:32;;;;;;;26.67;7.05;;;692.00;2432.00;;;;;;4975730;28;20062;-81
2021/06/26 07:15:58;;;;;;;22.20;6.22;;;691.90;2406.40;;;;;;4974230;28;20343;-81
2021/06/26 07:18:25;;;;;;;25.00;6.20;;;692.10;2432.00;;;;;;4973894;28;20113;-80
2021/06/26 07:20:51;;;;;;;17.85;6.75;;;716.80;2432.00;;;;;;4974504;28;20022;-78
2021/06/26 07:23:16;;;;;;;22.30;6.20;;;717.20;2432.00;;;;;;4974995;28;20371;-80
2021/06/26 07:25:42;;;;;;;18.08;6.47;;;717.30;2380.80;;;;;;4974430;28;20029;-80
2021/06/26 07:28:08;;;;;;;19.45;5.68;;;717.20;2355.20;;;;;;4976800;28;20034;-81
2021/06/26 07:30:34;;;;;;;26.17;6.05;;;717.30;2355.20;;;;;;4974558;28;20491;-80
2021/06/26 07:33:00;;;;;;;23.88;7.38;;;717.50;2329.60;;;;;;4974132;28;20022;-80
2021/06/26 07:35:25;;;;;;;18.52;6.22;;;742.40;2329.60;;;;;;4973947;28;20029;-79
2021/06/26 07:37:51;;;;;;;27.73;9.35;;;717.70;2252.80;;;;;;4973901;28;20481;-79
2021/06/26 07:40:17;;;;;;;21.45;6.93;;;742.50;2329.60;;;;;;4974330;28;20031;-80
2021/06/26 07:42:44;;;;;;;24.52;8.18;;;742.80;2329.60;;;;;;4974103;28;20061;-81
2021/06/26 07:45:10;;;;;;;19.77;6.32;;;742.90;2252.80;;;;;;4973847;28;20058;-80
2021/06/26 07:47:36;;;;;;;21.60;5.53;;;742.80;2201.60;;;;;;4974024;28;20126;-79
2021/06/26 07:50:04;;;;;;;22.58;7.03;;;743.00;2201.60;;;;;;4973889;28;20023;-79
2021/06/26 07:52:30;;;;;;;22.55;6.43;;;743.10;2227.20;;;;;;4973041;28;20026;-79
2021/06/26 07:54:56;;;;;;;18.92;5.07;;;743.20;2150.40;;;;;;4974668;28;20042;-78
2021/06/26 07:57:22;;;;;;;22.75;6.80;;;743.20;2099.20;;;;;;4972788;28;20101;-78
2021/06/26 07:59:47;;;;;;;27.90;6.18;;;743.20;2176.00;;;;;;4973074;28;20459;-79
2021/06/26 08:02:13;;;;;;;25.45;7.25;;;768.10;2176.00;;;;;;4973667;28;20026;-79
2021/06/26 08:04:39;;;;;;;24.05;6.65;;;768.40;2150.40;;;;;;4975126;28;20026;-78
2021/06/26 08:07:05;;;;;;;23.77;6.93;;;768.50;2150.40;;;;;;4977331;28;20054;-78
2021/06/26 08:09:31;;;;;;;20.63;6.28;;;768.60;2150.40;;;;;;4978662;28;20157;-78
2021/06/26 08:11:56;;;;;;;18.15;6.53;;;768.80;2176.00;;;;;;4977438;28;20025;-79
2021/06/26 08:14:22;;;;;;;26.67;6.72;;;793.60;2150.40;;;;;;4977085;28;20419;-79
2021/06/26 08:16:48;;;;;;;33.13;7.25;;;793.60;2124.80;;;;;;4978693;28;20030;-78
2021/06/26 08:19:14;;;;;;;27.55;12.43;;;793.70;2099.20;;;;;;4977430;28;20037;-79
2021/06/26 08:21:41;;;;;;;30.25;14.23;;;794.00;2099.20;;;;;;4977079;28;20023;-77
2021/06/26 08:24:07;;;;;;;24.25;8.15;;;794.00;2073.60;;;;;;4977442;28;20026;-79
2021/06/26 08:26:34;;;;;;;19.80;6.78;;;794.20;2022.40;;;;;;4977097;28;20026;-79
2021/06/26 08:29:00;;;;;;;24.05;7.60;;;794.40;1945.60;;;;;;4976717;28;20407;-81
2021/06/26 08:31:26;;;;;;;21.45;5.95;;;794.00;1945.60;;;;;;4978120;28;20065;-79
2021/06/26 08:33:52;;;;;;;18.00;5.63;;;793.70;1945.60;;;;;;4977143;28;20344;-81
2021/06/26 08:36:17;;;;;;;21.40;7.43;;;794.00;1971.20;;;;;;4977658;28;20062;-78
2021/06/26 08:38:43;;;;;;;22.50;8.75;;;794.30;1996.80;;;;;;4977300;28;20027;-78
2021/06/26 08:41:10;;;;;;;29.65;10.00;;;819.20;1945.60;;;;;;4976578;28;20374;-80
2021/06/26 08:43:36;;;;;;;30.02;8.30;;;819.40;1920.00;;;;;;4976747;28;20022;-80
2021/06/26 08:46:02;;;;;;;19.05;7.00;;;819.60;1920.00;;;;;;4976820;28;20031;-77
2021/06/26 08:48:28;;;;;;;19.98;6.25;;;819.80;1868.80;;;;;;4976349;28;20022;-79
2021/06/26 08:50:54;;;;;;;23.77;6.93;;;819.50;1868.80;;;;;;4977934;28;20090;-79
2021/06/26 08:53:20;;;;;;;21.25;6.88;;;820.10;1868.80;;;;;;4977175;28;20169;-78
2021/06/26 08:55:46;;;;;;;20.15;5.57;;;820.10;1868.80;;;;;;4976606;28;20501;-77
2021/06/26 08:58:12;;;;;;;18.88;5.45;;;820.10;1843.20;;;;;;4977426;28;20534;-80
2021/06/26 09:00:39;;;;;;;23.30;5.95;;;844.90;1894.40;;;;;;4978482;28;20030;-80
2021/06/26 09:03:14;;;;;;;20.00;6.57;;;820.10;1868.80;;;;;;4976019;28;20027;-79
2021/06/26 09:05:42;;;;;;;15.25;4.93;;;845.00;1894.40;;;;;;4977251;28;20018;-81
2021/06/26 09:08:12;;;;;;;19.70;5.60;;;844.90;1817.60;;;;;;4976644;28;20026;-79
2021/06/26 09:10:39;;;;;;;17.15;5.47;;;845.10;1843.20;;;;;;4976613;28;20027;-80
2021/06/26 09:13:15;;;;;;;22.42;5.97;;;845.40;1843.20;;;;;;4976898;28;20023;-80
2021/06/26 09:15:41;;;;;;;25.45;6.18;;;845.40;1792.00;;;;;;4976189;28;20430;-81
2021/06/26 09:18:13;;;;;;;34.63;7.47;;;845.30;1792.00;;;;;;4976393;28;20027;-81
2021/06/26 09:20:40;;;;;;;;;;;845.70;1868.80;;;;;;4976885;28;20026;-80
2021/06/26 09:23:16;;;;;;;26.27;5.93;;;870.40;1843.20;;;;;;4976683;28;20269;-80
2021/06/26 09:25:42;;;;;;;18.50;6.35;;;870.40;1843.20;;;;;;4977935;28;20027;-78
2021/06/26 09:28:09;;;;;;;20.30;7.85;;;870.50;1792.00;;;;;;4976560;28;20509;-79
2021/06/26 09:30:44;;;;;;;18.55;5.47;;;870.50;1740.80;;;;;;4978364;28;20035;-79
2021/06/26 09:33:15;;;;;;;24.67;5.53;;;870.70;1715.20;;;;;;4976034;28;20426;-77
2021/06/26 09:35:47;;;;;;;18.33;5.95;;;870.60;1689.60;;;;;;4979091;28;20027;-81
2021/06/26 09:38:13;;;;;;;28.33;7.15;;;870.90;1715.20;;;;;;4976941;28;20015;-76
2021/06/26 09:40:41;;;;;;;29.73;7.20;;;871.10;1689.60;;;;;;4977022;28;20447;-81
2021/06/26 09:43:24;;;;;;;18.80;5.15;;;871.20;1638.40;;;;;;4975751;28;20023;-79
2021/06/26 09:45:50;;;;;;;16.13;5.65;;;871.30;1612.80;;;;;;4975856;28;20027;-78
2021/06/26 09:48:15;;;;;;;17.88;5.90;;;896.10;1612.80;;;;;;4975997;28;20023;-82
2021/06/26 09:50:42;;;;;;;19.67;5.80;;;896.20;1638.40;;;;;;4975499;28;20019;-82
2021/06/26 09:53:09;;;;;;;25.00;6.45;;;896.30;1612.80;;;;;;4975075;28;20027;-80
2021/06/26 09:55:40;;;;;;;20.88;7.55;;;896.40;1561.60;;;;;;4974262;28;20051;-81
2021/06/26 09:58:17;;;;;;;25.05;7.60;;;896.40;1561.60;;;;;;4975188;28;20420;-79
2021/06/26 10:00:44;;;;;;;20.25;5.63;;;896.60;1561.60;;;;;;4975375;28;20026;-81
2021/06/26 10:03:11;;;;;;;28.48;6.43;;;896.70;1536.00;;;;;;4975402;28;20031;-80
2021/06/26 10:05:38;;;;;;;22.02;6.32;;;896.80;1536.00;;;;;;4975856;28;20027;-81
2021/06/26 10:08:06;;;;;;;25.40;6.75;;;896.90;1561.60;;;;;;4975273;28;20097;-80
2021/06/26 10:10:32;;;;;;;15.50;6.00;;;921.70;1536.00;;;;;;4975632;28;20023;-79
2021/06/26 10:12:59;;;;;;;21.55;6.00;;;922.30;1536.00;;;;;;4975999;28;20030;-79
2021/06/26 10:15:30;;;;;;;22.40;5.30;;;921.80;1484.80;;;;;;4975397;28;20018;-80
2021/06/26 10:17:56;;;;;;;22.85;5.05;;;921.70;1510.40;;;;;;4975350;28;20031;-79
2021/06/26 10:20:24;;;;;;;25.65;6.93;;;921.80;1510.40;;;;;;4975231;28;20105;-79
2021/06/26 10:22:57;;;;;;;17.58;5.68;;;922.00;1536.00;;;;;;4975087;28;20054;-77
2021/06/26 10:25:35;;;;;;;16.42;5.70;;;896.90;1484.80;;;;;;4976013;28;20510;-76
2021/06/26 10:28:03;;;;;;;20.77;6.40;;;921.80;1536.00;;;;;;4973972;28;20097;-80
2021/06/26 10:30:29;;;;;;;23.95;7.03;;;921.70;1536.00;;;;;;4974827;28;20254;-77
2021/06/26 10:33:00;;;;;;;20.88;6.22;;;921.60;1587.20;;;;;;4974715;28;20030;-77
2021/06/26 10:35:31;;;;;;;17.45;5.35;;;921.80;1561.60;;;;;;4974909;28;20410;-79
2021/06/26 10:38:04;;;;;;;;;;;921.70;1561.60;;;;;;4976199;28;20039;-78
2021/06/26 10:40:48;;;;;;;15.27;4.90;;;896.90;1484.80;;;;;;4974343;28;19996;-79
2021/06/26 10:43:28;;;;;;;24.58;6.38;;;896.70;1484.80;;;;;;4974692;28;20023;-82
2021/06/26 10:46:10;;;;;;;24.73;6.38;;;896.50;1510.40;;;;;;4955451;29;20474;-81
2021/06/26 10:48:38;;;;;;;18.98;5.35;;;896.60;1510.40;;;;;;4955331;29;20114;-82
2021/06/26 10:51:05;;;;;;;21.77;4.57;;;896.50;1510.40;;;;;;4954296;29;20029;-80
2021/06/26 10:53:33;;;;;;;20.20;5.43;;;896.60;1536.00;;;;;;4954884;29;20069;-79
2021/06/26 10:56:06;;;;;;;25.73;5.45;;;896.60;1536.00;;;;;;4955609;28;20044;-79
2021/06/26 10:58:46;;;;;;;19.80;5.32;;;896.60;1561.60;;;;;;4956515;28;20415;-81
2021/06/26 11:01:15;;;;;;;22.50;6.18;;;871.30;1587.20;;;;;;4955161;29;20027;-81
2021/06/26 11:03:41;;;;;;;23.65;5.38;;;896.60;1587.20;;;;;;4956517;28;20074;-80
2021/06/26 11:06:27;;;;;;;19.80;5.63;;;921.60;1561.60;;;;;;4956703;28;20031;-81
2021/06/26 11:09:22;;;;;;;19.65;5.45;;;896.80;1536.00;;;;;;4954891;29;20058;-81
2021/06/26 11:11:48;;;;;;;22.58;6.10;;;921.60;1561.60;;;;;;4950639;29;20572;-81
2021/06/26 11:14:26;;;;;;;25.15;6.15;;;921.60;1561.60;;;;;;4954761;29;20027;-80
2021/06/26 11:16:54;;;;;;;21.45;5.85;;;922.00;1561.60;;;;;;4954594;29;20384;-79
2021/06/26 11:19:21;;;;;;;20.55;5.28;;;922.50;1536.00;;;;;;4984380;28;20466;-79
2021/06/26 11:21:52;;;;;;;26.58;5.97;;;922.00;1510.40;;;;;;4993320;28;20422;-80
2021/06/26 11:24:19;;;;;;;25.48;6.78;;;896.90;1484.80;;;;;;4993612;28;20029;-79
2021/06/26 11:26:55;;;;;;;16.15;5.60;;;921.90;1561.60;;;;;;4995022;28;20086;-80
2021/06/26 11:29:36;;;;;;;23.58;5.75;;;896.90;1536.00;;;;;;4992974;28;20450;-77
2021/06/26 11:32:19;;;;;;;18.20;5.88;;;921.70;1561.60;;;;;;4993190;28;20022;-75
2021/06/26 11:34:57;;;;;;;25.30;7.63;;;921.90;1536.00;;;;;;4993443;28;20022;-78
2021/06/26 11:37:32;;;;;;;21.88;7.80;;;921.90;1536.00;;;;;;4992903;28;20030;-77
2021/06/26 11:39:58;;;;;;;21.88;8.80;;;896.90;1536.00;;;;;;4993291;28;20477;-77
2021/06/26 11:42:26;;;;;;;24.23;6.05;;;896.90;1510.40;;;;;;4977133;28;20077;-76
2021/06/26 11:44:52;;;;;;;20.25;6.03;;;921.70;1536.00;;;;;;4992900;28;20023;-77
2021/06/26 11:47:18;;;;;;;21.23;7.72;;;922.00;1510.40;;;;;;4980451;28;20378;-76
2021/06/26 11:49:47;;;;;;;22.10;7.95;;;922.40;1484.80;;;;;;4973177;28;20030;-77
2021/06/26 11:52:15;;;;;;;26.13;6.25;;;947.20;1459.20;;;;;;4973667;28;20026;-76
2021/06/26 11:54:41;;;;;;;20.73;7.28;;;947.50;1484.80;;;;;;4972994;28;20065;-74
2021/06/26 11:57:11;;;;;;;19.40;7.07;;;947.80;1433.60;;;;;;4973081;28;20069;-79
2021/06/26 11:59:48;;;;;;;20.05;6.22;;;947.90;1433.60;;;;;;4974916;28;20019;-77
2021/06/26 12:02:16;;;;;;;19.20;6.13;;;947.70;1433.60;;;;;;4973479;28;20030;-76
2021/06/26 12:04:42;;;;;;;19.58;6.88;;;947.80;1433.60;;;;;;4973207;28;20023;-79
2021/06/26 12:07:09;;;;;;;29.77;6.13;;;947.60;1433.60;;;;;;4973351;28;20039;-77
2021/06/26 12:09:38;;;;;;;24.02;6.40;;;947.50;1459.20;;;;;;4974505;28;20019;-78